createdAt,value
2022-11-05T00:00:17.916Z,10.89
2022-11-05T00:03:05.535Z,11.10
2022-11-05T00:05:52.143Z,10.66
2022-11-05T00:08:43.953Z,10.40
2022-11-05T00:11:17.937Z,10.15
2022-11-05T00:14:04.686Z,10.02
2022-11-05T00:16:45.276Z,10.42
2022-11-05T00:19:16.835Z,10.46
2022-11-05T00:22:02.920Z,10.56
2022-11-05T00:24:49.425Z,10.59
2022-11-05T00:27:18.238Z,10.49
2022-11-05T00:29:47.078Z,10.82
2022-11-05T00:32:16.088Z,10.73
2022-11-05T00:34:46.307Z,10.79
2022-11-05T00:37:15.132Z,10.74
2022-11-05T00:39:44.610Z,10.24
2022-11-05T00:42:30.647Z,10.54
2022-11-05T00:45:02.611Z,10.63
2022-11-05T00:47:51.132Z,10.59
2022-11-05T00:50:23.092Z,10.75
2022-11-05T00:52:58.151Z,10.81
2022-11-05T00:55:30.175Z,10.51
2022-11-05T00:57:59.337Z,10.43
2022-11-05T01:00:29.923Z,10.67
2022-11-05T01:03:00.059Z,10.57
2022-11-05T01:05:32.921Z,10.50
2022-11-05T01:08:02.218Z,10.50
2022-11-05T01:10:31.189Z,10.64
2022-11-05T01:13:00.208Z,10.42
2022-11-05T01:15:29.622Z,10.69
2022-11-05T01:17:58.703Z,10.80
2022-11-05T01:20:28.074Z,10.82
2022-11-05T01:22:58.983Z,10.91
2022-11-05T01:25:27.857Z,10.86
2022-11-05T01:27:56.840Z,10.51
2022-11-05T01:30:26.190Z,10.47
2022-11-05T01:32:55.057Z,9.93
2022-11-05T01:35:24.085Z,9.93
2022-11-05T01:37:53.037Z,9.99
2022-11-05T01:40:24.908Z,9.98
2022-11-05T01:42:53.824Z,9.93
2022-11-05T01:45:25.493Z,9.57
2022-11-05T01:48:03.277Z,9.74
2022-11-05T01:50:37.435Z,9.95
2022-11-05T01:53:16.970Z,10.07
2022-11-05T01:55:52.285Z,10.20
2022-11-05T01:58:26.064Z,10.15
2022-11-05T02:00:57.925Z,10.24
2022-11-05T02:03:27.432Z,10.33
2022-11-05T02:05:58.541Z,10.31
2022-11-05T02:08:42.913Z,10.24
2022-11-05T02:11:15.457Z,10.39
2022-11-05T02:13:44.609Z,10.32
2022-11-05T02:16:21.128Z,10.30
2022-11-05T02:19:00.180Z,10.49
2022-11-05T02:22:05.236Z,10.70
2022-11-05T02:25:09.561Z,10.52
2022-11-05T02:28:07.004Z,10.41
2022-11-05T02:30:48.822Z,10.34
2022-11-05T02:33:32.442Z,10.57
2022-11-05T02:36:19.463Z,10.53
2022-11-05T02:38:59.728Z,10.10
2022-11-05T02:41:36.807Z,9.74
2022-11-05T02:44:16.203Z,9.79
2022-11-05T02:46:55.260Z,9.18
2022-11-05T02:49:40.360Z,9.41
2022-11-05T02:52:16.740Z,9.71
2022-11-05T02:54:51.232Z,9.88
2022-11-05T02:57:22.076Z,9.82
2022-11-05T02:59:50.984Z,9.92
2022-11-05T03:02:21.348Z,9.89
2022-11-05T03:04:50.304Z,9.70
2022-11-05T03:07:43.481Z,9.74
2022-11-05T03:10:40.503Z,9.75
2022-11-05T03:13:18.108Z,9.00
2022-11-05T03:15:54.848Z,9.26
2022-11-05T03:18:32.558Z,8.98
2022-11-05T03:21:06.807Z,9.42
2022-11-05T03:23:42.944Z,9.65
2022-11-05T03:26:17.642Z,9.42
2022-11-05T03:28:51.812Z,9.32
2022-11-05T03:31:23.666Z,9.22
2022-11-05T03:33:56.711Z,9.38
2022-11-05T03:36:30.618Z,9.59
2022-11-05T03:39:04.231Z,9.59
2022-11-05T03:41:35.059Z,9.47
2022-11-05T03:44:08.280Z,9.77
2022-11-05T03:46:42.892Z,9.89
2022-11-05T03:49:20.464Z,9.68
2022-11-05T03:51:54.672Z,9.52
2022-11-05T03:54:24.062Z,9.51
2022-11-05T03:57:02.285Z,9.45
2022-11-05T03:59:33.375Z,9.44
2022-11-05T04:02:04.974Z,9.24
2022-11-05T04:04:35.414Z,9.31
2022-11-05T04:07:22.041Z,9.36
2022-11-05T04:10:08.601Z,9.41
2022-11-05T04:12:54.627Z,9.46
2022-11-05T04:15:23.539Z,9.61
2022-11-05T04:17:51.504Z,9.64
2022-11-05T04:20:39.190Z,9.67
2022-11-05T04:23:25.796Z,9.73
2022-11-05T04:25:54.615Z,9.69
2022-11-05T04:28:43.454Z,9.62
2022-11-05T04:31:11.288Z,9.32
2022-11-05T04:33:41.061Z,9.38
2022-11-05T04:36:11.409Z,9.08
2022-11-05T04:38:40.202Z,8.83
2022-11-05T04:41:16.158Z,8.76
2022-11-05T04:43:45.654Z,8.53
2022-11-05T04:46:14.470Z,8.32
2022-11-05T04:48:43.230Z,8.49
2022-11-05T04:51:13.446Z,8.38
2022-11-05T04:53:42.309Z,8.41
2022-11-05T04:56:12.494Z,8.61
2022-11-05T04:58:41.406Z,8.86
2022-11-05T05:01:14.253Z,9.08
2022-11-05T05:03:43.397Z,9.65
2022-11-05T05:06:13.697Z,9.86
2022-11-05T05:08:42.630Z,10.00
2022-11-05T05:11:13.640Z,9.94
2022-11-05T05:13:42.461Z,9.31
2022-11-05T05:16:20.757Z,8.99
2022-11-05T05:18:50.540Z,8.75
2022-11-05T05:21:39.703Z,8.69
2022-11-05T05:24:10.629Z,8.80
2022-11-05T05:26:42.358Z,8.81
2022-11-05T05:29:12.833Z,8.84
2022-11-05T05:31:41.737Z,8.93
2022-11-05T05:34:12.768Z,8.91
2022-11-05T05:36:43.019Z,9.19
2022-11-05T05:39:11.935Z,9.25
2022-11-05T05:41:40.919Z,9.36
2022-11-05T05:44:09.895Z,9.47
2022-11-05T05:46:38.845Z,9.46
2022-11-05T05:49:12.485Z,9.47
2022-11-05T05:51:43.003Z,9.14
2022-11-05T05:54:13.096Z,8.99
2022-11-05T05:56:44.134Z,9.13
2022-11-05T05:59:13.044Z,9.63
2022-11-05T06:01:42.442Z,9.65
2022-11-05T06:04:11.557Z,9.68
2022-11-05T06:06:40.368Z,9.96
2022-11-05T06:09:10.593Z,10.22
2022-11-05T06:11:39.403Z,10.30
2022-11-05T06:14:11.183Z,10.73
2022-11-05T06:16:40.091Z,10.99
2022-11-05T06:19:09.401Z,11.29
2022-11-05T06:21:38.272Z,11.71
2022-11-05T06:24:07.919Z,11.61
2022-11-05T06:26:42.731Z,11.75
2022-11-05T06:29:11.607Z,11.61
2022-11-05T06:31:40.437Z,11.50
2022-11-05T06:34:09.299Z,11.65
2022-11-05T06:36:38.080Z,11.56
2022-11-05T06:39:10.673Z,11.96
2022-11-05T06:44:29.817Z,11.62
2022-11-05T06:46:58.707Z,11.91
2022-11-05T06:49:27.705Z,12.52
2022-11-05T06:51:56.560Z,12.96
2022-11-05T06:54:25.433Z,12.97
2022-11-05T06:56:56.220Z,13.34
2022-11-05T06:59:25.052Z,13.52
2022-11-05T07:01:54.218Z,13.34
2022-11-05T07:04:23.098Z,13.06
2022-11-05T07:06:51.974Z,13.25
2022-11-05T07:09:20.875Z,13.03
2022-11-05T07:11:49.716Z,13.13
2022-11-05T07:14:19.937Z,13.56
2022-11-05T07:16:48.889Z,13.75
2022-11-05T07:19:17.752Z,14.29
2022-11-05T07:21:48.531Z,14.52
2022-11-05T07:24:17.480Z,14.27
2022-11-05T07:26:46.308Z,14.79
2022-11-05T07:29:15.115Z,15.35
2022-11-05T07:31:47.038Z,15.65
2022-11-05T07:34:15.862Z,15.68
2022-11-05T07:36:44.704Z,16.03
2022-11-05T07:39:13.535Z,16.22
2022-11-05T07:41:42.464Z,15.32
2022-11-05T07:44:11.762Z,16.67
2022-11-05T07:46:40.699Z,17.11
2022-11-05T07:49:11.187Z,17.45
2022-11-05T07:51:40.036Z,16.24
2022-11-05T07:54:08.855Z,16.14
2022-11-05T07:56:37.785Z,15.67
2022-11-05T07:59:06.869Z,15.82
2022-11-05T08:01:35.832Z,15.93
2022-11-05T08:04:05.067Z,15.97
2022-11-05T08:06:35.300Z,16.38
2022-11-05T08:09:04.263Z,16.14
2022-11-05T08:11:35.144Z,16.51
2022-11-05T08:14:04.523Z,16.79
2022-11-05T08:16:33.368Z,17.77
2022-11-05T08:19:02.160Z,17.01
2022-11-05T08:21:30.988Z,18.01
2022-11-05T08:24:01.566Z,17.93
2022-11-05T08:26:30.465Z,19.04
2022-11-05T08:29:00.499Z,20.15
2022-11-05T08:31:31.142Z,19.41
2022-11-05T08:34:02.635Z,18.52
2022-11-05T08:36:31.728Z,19.16
2022-11-05T08:39:02.030Z,18.41
2022-11-05T08:41:30.856Z,18.50
2022-11-05T08:43:59.763Z,18.17
2022-11-05T08:46:28.577Z,18.12
2022-11-05T08:48:57.844Z,18.42
2022-11-05T08:51:26.680Z,17.99
2022-11-05T08:53:55.524Z,18.21
2022-11-05T08:56:25.780Z,18.68
2022-11-05T08:58:54.816Z,17.96
2022-11-05T09:01:23.747Z,19.40
2022-11-05T09:03:52.954Z,19.25
2022-11-05T09:06:21.977Z,19.87
2022-11-05T09:08:50.747Z,20.33
2022-11-05T09:11:20.160Z,21.40
2022-11-05T09:13:50.457Z,22.35
2022-11-05T09:16:24.279Z,20.80
2022-11-05T09:18:53.812Z,21.52
2022-11-05T09:21:22.690Z,22.16
2022-11-05T09:23:51.504Z,23.63
2022-11-05T09:26:20.415Z,24.48
2022-11-05T09:28:50.624Z,24.29
2022-11-05T09:31:19.592Z,24.63
2022-11-05T09:33:48.685Z,25.68
2022-11-05T09:36:17.556Z,26.52
2022-11-05T09:38:46.367Z,26.52
2022-11-05T09:41:21.753Z,25.60
2022-11-05T09:43:55.393Z,25.74
2022-11-05T09:46:26.830Z,26.77
2022-11-05T09:49:02.295Z,26.18
2022-11-05T09:51:32.337Z,25.45
2022-11-05T09:54:05.610Z,24.90
2022-11-05T09:56:37.254Z,25.28
2022-11-05T09:59:14.806Z,23.62
2022-11-05T10:01:44.878Z,24.29
2022-11-05T10:04:18.099Z,24.28
2022-11-05T10:06:50.392Z,26.18
2022-11-05T10:09:26.276Z,27.65
2022-11-05T10:11:59.148Z,26.83
2022-11-05T10:14:33.169Z,26.39
2022-11-05T10:17:09.289Z,24.35
2022-11-05T10:19:44.560Z,24.85
2022-11-05T10:22:16.258Z,25.82
2022-11-05T10:24:47.229Z,24.90
2022-11-05T10:27:19.639Z,26.74
2022-11-05T10:29:50.545Z,27.30
2022-11-05T10:32:28.677Z,28.35
2022-11-05T10:35:00.330Z,27.39
2022-11-05T10:37:30.765Z,28.29
2022-11-05T10:40:00.135Z,28.91
2022-11-05T10:42:41.198Z,28.57
2022-11-05T10:45:21.382Z,28.79
2022-11-05T10:48:03.946Z,30.04
2022-11-05T10:50:33.482Z,29.96
2022-11-05T10:53:06.744Z,30.39
2022-11-05T10:55:37.567Z,29.38
2022-11-05T10:58:18.351Z,27.36
2022-11-05T11:01:03.977Z,26.75
2022-11-05T11:03:37.462Z,27.24
2022-11-05T11:06:20.858Z,27.54
2022-11-05T11:08:51.348Z,26.46
2022-11-05T11:11:30.272Z,25.72
2022-11-05T11:14:07.800Z,26.63
2022-11-05T11:16:40.338Z,26.39
2022-11-05T11:19:26.223Z,26.02
2022-11-05T11:22:15.070Z,25.75
2022-11-05T11:24:45.457Z,26.64
2022-11-05T11:27:17.696Z,25.81
2022-11-05T11:29:50.991Z,25.51
2022-11-05T11:32:23.141Z,25.71
2022-11-05T11:34:55.077Z,26.18
2022-11-05T11:37:27.851Z,25.42
2022-11-05T11:40:01.224Z,25.11
2022-11-05T11:42:34.044Z,25.37
2022-11-05T11:45:07.070Z,25.50
2022-11-05T11:47:43.710Z,24.69
2022-11-05T11:50:35.384Z,25.48
2022-11-05T11:53:29.782Z,25.88
2022-11-05T11:56:04.867Z,24.54
2022-11-05T11:58:40.767Z,24.29
2022-11-05T12:01:43.335Z,24.11
2022-11-05T12:04:29.232Z,24.23
2022-11-05T12:07:09.699Z,24.31
2022-11-05T12:10:02.024Z,24.13
2022-11-05T12:12:42.911Z,23.73
2022-11-05T12:15:28.891Z,23.94
2022-11-05T12:18:02.979Z,23.86
2022-11-05T12:20:58.509Z,23.90
2022-11-05T12:23:52.566Z,23.80
2022-11-05T12:26:30.397Z,23.86
2022-11-05T12:29:18.903Z,23.42
2022-11-05T12:31:57.157Z,23.08
2022-11-05T12:34:40.137Z,23.01
2022-11-05T12:37:24.040Z,22.85
2022-11-05T12:40:07.309Z,22.79
2022-11-05T12:42:47.903Z,22.58
2022-11-05T12:45:28.666Z,22.68
2022-11-05T12:48:13.519Z,22.84
2022-11-05T12:50:46.428Z,22.60
2022-11-05T12:53:42.514Z,22.65
2022-11-05T12:56:14.430Z,22.60
2022-11-05T12:58:45.998Z,22.76
2022-11-05T13:01:21.510Z,22.17
2022-11-05T13:03:56.053Z,22.01
2022-11-05T13:06:31.095Z,21.29
2022-11-05T13:09:04.367Z,21.21
2022-11-05T13:11:37.371Z,21.07
2022-11-05T13:14:12.767Z,20.82
2022-11-05T13:16:45.847Z,20.70
2022-11-05T13:19:20.298Z,20.95
2022-11-05T13:21:54.486Z,20.52
2022-11-05T13:24:27.501Z,19.99
2022-11-05T13:27:01.953Z,19.47
2022-11-05T13:29:35.702Z,19.74
2022-11-05T13:32:14.979Z,19.68
2022-11-05T13:34:44.639Z,19.27
2022-11-05T13:37:29.320Z,19.26
2022-11-05T13:40:03.344Z,18.81
2022-11-05T13:42:56.194Z,19.51
2022-11-05T13:46:05.813Z,19.61
2022-11-05T13:48:50.503Z,19.24
2022-11-05T13:51:46.428Z,18.95
2022-11-05T13:54:47.684Z,18.82
2022-11-05T13:57:34.697Z,18.48
2022-11-05T14:00:12.620Z,18.73
2022-11-05T14:02:44.675Z,18.49
2022-11-05T14:05:25.481Z,18.94
2022-11-05T14:07:56.194Z,18.85
2022-11-05T14:10:35.900Z,18.85
2022-11-05T14:13:18.277Z,18.26
2022-11-05T14:16:05.119Z,18.47
2022-11-05T14:18:56.309Z,18.59
2022-11-05T14:21:46.395Z,18.80
2022-11-05T14:24:39.963Z,19.22
2022-11-05T14:27:34.264Z,19.18
2022-11-05T14:30:44.054Z,19.15
2022-11-05T14:33:32.294Z,18.89
2022-11-05T14:36:36.310Z,19.00
2022-11-05T14:39:21.111Z,19.11
2022-11-05T14:41:59.066Z,19.13
2022-11-05T14:44:29.345Z,19.00
2022-11-05T14:47:03.396Z,18.97
2022-11-05T14:49:37.361Z,17.72
2022-11-05T14:52:09.187Z,17.77
2022-11-05T14:54:44.014Z,18.05
2022-11-05T14:57:15.606Z,18.36
2022-11-05T14:59:57.106Z,18.34
2022-11-05T15:02:32.623Z,18.43
2022-11-05T15:05:37.526Z,18.49
2022-11-05T15:08:32.987Z,18.66
2022-11-05T15:11:12.934Z,18.52
2022-11-05T15:13:52.012Z,18.78
2022-11-05T15:16:24.868Z,18.52
2022-11-05T15:18:57.479Z,18.51
2022-11-05T15:21:26.824Z,18.07
2022-11-05T15:23:57.871Z,17.73
2022-11-05T15:26:32.535Z,18.39
2022-11-05T15:29:03.239Z,18.51
2022-11-05T15:31:35.311Z,17.63
2022-11-05T15:34:19.532Z,17.68
2022-11-05T15:36:50.749Z,17.56
2022-11-05T15:39:32.202Z,17.76
2022-11-05T15:42:06.938Z,17.50
2022-11-05T15:44:40.730Z,17.71
2022-11-05T15:47:15.574Z,17.88
2022-11-05T15:49:48.832Z,17.60
2022-11-05T15:52:20.202Z,17.54
2022-11-05T15:55:08.516Z,17.38
2022-11-05T15:57:40.518Z,17.39
2022-11-05T16:00:18.891Z,17.22
2022-11-05T16:02:55.412Z,16.86
2022-11-05T16:05:27.500Z,17.04
2022-11-05T16:07:59.347Z,17.16
2022-11-05T16:10:31.138Z,17.08
2022-11-05T16:13:34.163Z,17.23
2022-11-05T16:16:06.028Z,17.13
2022-11-05T16:18:37.751Z,16.97
2022-11-05T16:21:09.865Z,16.69
2022-11-05T16:23:45.108Z,16.62
2022-11-05T16:27:01.087Z,16.53
2022-11-05T16:29:29.190Z,16.35
2022-11-05T16:32:00.000Z,16.36
2022-11-05T16:34:33.759Z,16.00
2022-11-05T16:37:05.219Z,16.30
2022-11-05T16:39:34.415Z,16.23
2022-11-05T16:42:13.965Z,16.07
2022-11-05T16:44:42.806Z,16.30
2022-11-05T16:47:11.639Z,16.06
2022-11-05T16:49:40.506Z,15.87
2022-11-05T16:52:12.400Z,15.82
2022-11-05T16:54:41.579Z,15.90
2022-11-05T16:57:20.923Z,15.99
2022-11-05T16:59:49.808Z,16.04
2022-11-05T17:02:18.784Z,16.08
2022-11-05T17:04:47.710Z,15.90
2022-11-05T17:07:17.980Z,15.95
2022-11-05T17:09:46.810Z,15.89
2022-11-05T17:12:16.272Z,15.80
2022-11-05T17:14:45.125Z,15.80
2022-11-05T17:17:13.976Z,15.63
2022-11-05T17:19:47.944Z,15.56
2022-11-05T17:22:18.238Z,15.56
2022-11-05T17:24:47.100Z,15.47
2022-11-05T17:27:16.285Z,15.41
2022-11-05T17:29:45.154Z,14.72
2022-11-05T17:32:14.255Z,14.62
2022-11-05T17:34:43.073Z,14.36
2022-11-05T17:37:11.861Z,14.55
2022-11-05T17:39:42.080Z,14.66
2022-11-05T17:42:10.921Z,14.70
2022-11-05T17:44:39.776Z,14.58
2022-11-05T17:47:08.561Z,14.44
2022-11-05T17:49:37.624Z,14.42
2022-11-05T17:52:06.749Z,14.33
2022-11-05T17:54:35.549Z,14.36
2022-11-05T17:57:06.369Z,14.47
2022-11-05T17:59:35.265Z,14.47
2022-11-05T18:02:04.333Z,14.53
2022-11-05T18:04:33.420Z,14.49
2022-11-05T18:07:02.226Z,14.27
2022-11-05T18:09:31.040Z,14.52
2022-11-05T18:12:00.140Z,14.43
2022-11-05T18:14:31.254Z,14.51
2022-11-05T18:17:00.465Z,14.55
2022-11-05T18:19:30.771Z,14.53
2022-11-05T18:21:59.683Z,14.49
2022-11-05T18:24:28.511Z,14.32
2022-11-05T18:26:57.295Z,14.66
2022-11-05T18:29:26.325Z,14.22
2022-11-05T18:31:56.577Z,14.39
2022-11-05T18:34:25.499Z,14.47
2022-11-05T18:36:56.608Z,14.34
2022-11-05T18:39:25.808Z,14.04
2022-11-05T18:41:54.637Z,13.99
2022-11-05T18:44:24.828Z,14.07
2022-11-05T18:46:58.510Z,13.98
2022-11-05T18:49:29.414Z,14.09
2022-11-05T18:52:04.444Z,13.96
2022-11-05T18:54:34.163Z,14.10
2022-11-05T18:57:02.980Z,14.11
2022-11-05T18:59:38.294Z,13.74
2022-11-05T19:02:09.490Z,13.50
2022-11-05T19:04:50.582Z,13.42
2022-11-05T19:07:29.777Z,13.32
2022-11-05T19:09:58.636Z,13.30
2022-11-05T19:12:27.504Z,13.37
2022-11-05T19:15:01.909Z,13.36
2022-11-05T19:17:33.277Z,13.46
2022-11-05T19:20:04.488Z,13.54
2022-11-05T19:22:33.458Z,13.68
2022-11-05T19:25:02.345Z,13.81
2022-11-05T19:27:31.206Z,13.91
2022-11-05T19:30:00.020Z,13.87
2022-11-05T19:32:29.714Z,13.87
2022-11-05T19:34:58.521Z,13.71
2022-11-05T19:37:28.853Z,13.76
2022-11-05T19:39:57.698Z,13.72
2022-11-05T19:42:27.504Z,13.79
2022-11-05T19:44:56.967Z,13.87
2022-11-05T19:47:29.604Z,13.94
2022-11-05T19:49:58.451Z,13.85
2022-11-05T19:52:28.768Z,13.92
2022-11-05T19:54:57.636Z,14.06
2022-11-05T19:57:26.403Z,14.26
2022-11-05T19:59:55.850Z,14.27
2022-11-05T20:02:24.936Z,14.18
2022-11-05T20:04:53.915Z,14.16
2022-11-05T20:07:22.741Z,14.29
2022-11-05T20:09:52.949Z,14.09
2022-11-05T20:12:21.877Z,13.87
2022-11-05T20:14:50.752Z,13.84
2022-11-05T20:17:20.403Z,13.84
2022-11-05T20:19:49.400Z,12.94
2022-11-05T20:22:18.268Z,13.44
2022-11-05T20:24:47.181Z,13.65
2022-11-05T20:27:17.543Z,13.57
2022-11-05T20:29:46.433Z,13.72
2022-11-05T20:32:15.239Z,13.86
2022-11-05T20:34:44.635Z,13.82
2022-11-05T20:37:13.477Z,14.01
2022-11-05T20:39:42.482Z,13.74
2022-11-05T20:42:11.268Z,13.91
2022-11-05T20:44:41.482Z,13.85
2022-11-05T20:47:10.433Z,13.93
2022-11-05T20:49:39.270Z,13.72
2022-11-05T20:52:08.093Z,13.57
2022-11-05T20:54:36.942Z,13.64
2022-11-05T20:57:05.774Z,13.54
2022-11-05T20:59:34.613Z,13.63
2022-11-05T21:02:05.286Z,13.72
2022-11-05T21:04:34.258Z,12.25
2022-11-05T21:07:03.857Z,11.67
2022-11-05T21:09:32.997Z,12.14
2022-11-05T21:12:13.955Z,12.69
2022-11-05T21:14:44.523Z,12.95
2022-11-05T21:17:14.831Z,13.39
2022-11-05T21:19:43.844Z,13.90
2022-11-05T21:22:15.455Z,14.08
2022-11-05T21:24:44.715Z,14.06
2022-11-05T21:27:13.616Z,14.06
2022-11-05T21:29:42.457Z,14.12
2022-11-05T21:32:11.981Z,14.11
2022-11-05T21:34:42.409Z,14.17
2022-11-05T21:37:11.265Z,14.16
2022-11-05T21:39:40.168Z,14.19
2022-11-05T21:42:09.001Z,14.34
2022-11-05T21:44:37.840Z,14.33
2022-11-05T21:47:06.790Z,14.53
2022-11-05T21:49:36.360Z,14.47
2022-11-05T21:52:24.221Z,14.59
2022-11-05T21:55:10.254Z,14.57
2022-11-05T21:57:56.241Z,14.56
2022-11-05T22:00:25.426Z,14.43
2022-11-05T22:02:54.429Z,14.50
2022-11-05T22:05:23.372Z,14.59
2022-11-05T22:07:53.674Z,14.66
2022-11-05T22:10:22.772Z,14.63
2022-11-05T22:12:51.605Z,14.48
2022-11-05T22:15:20.603Z,14.47
2022-11-05T22:17:51.502Z,14.44
2022-11-05T22:20:20.349Z,14.23
2022-11-05T22:22:49.201Z,14.44
2022-11-05T22:25:19.759Z,14.39
2022-11-05T22:27:48.662Z,14.35
2022-11-05T22:30:17.726Z,14.32
2022-11-05T22:32:46.668Z,14.26
2022-11-05T22:35:15.467Z,14.27
2022-11-05T22:37:44.292Z,14.30
2022-11-05T22:40:13.326Z,13.94
2022-11-05T22:42:43.659Z,14.05
2022-11-05T22:45:12.606Z,14.00
2022-11-05T22:47:43.076Z,14.04
2022-11-05T22:50:11.923Z,14.10
2022-11-05T22:52:40.845Z,14.00
2022-11-05T22:55:10.552Z,13.92
2022-11-05T22:57:39.397Z,13.70
2022-11-05T23:00:18.336Z,13.84
2022-11-05T23:02:47.299Z,13.83
2022-11-05T23:05:16.934Z,13.85
2022-11-05T23:08:02.882Z,13.87
2022-11-05T23:10:49.418Z,14.00
2022-11-05T23:13:18.238Z,14.32
2022-11-05T23:16:08.354Z,14.59
2022-11-05T23:18:54.783Z,14.72
2022-11-05T23:21:41.121Z,14.88
2022-11-05T23:24:10.207Z,15.05
2022-11-05T23:26:52.395Z,15.10
2022-11-05T23:29:23.389Z,15.12
2022-11-05T23:32:11.452Z,15.20
2022-11-05T23:34:40.388Z,15.14
2022-11-05T23:37:26.889Z,15.12
2022-11-05T23:39:55.772Z,15.19
2022-11-05T23:42:42.308Z,15.25
2022-11-05T23:45:29.380Z,15.34
2022-11-05T23:48:17.839Z,15.25
2022-11-05T23:50:53.342Z,15.40
2022-11-05T23:53:22.276Z,15.43
2022-11-05T23:55:51.774Z,15.48
2022-11-05T23:58:20.923Z,15.47
